sensor_id;sensor_type;location;lat;lon;timestamp;pressure;altitude;pressure_sealevel;temperature;humidity
44453;BME280;30155;52.164;21.236;2023-02-12T00:00:34;101755.71;;;2.86;74.87
44453;BME280;30155;52.164;21.236;2023-02-12T00:05:26;101774.29;;;2.77;74.23
44453;BME280;30155;52.164;21.236;2023-02-12T00:10:19;101776.89;;;2.64;74.37
44453;BME280;30155;52.164;21.236;2023-02-12T00:15:12;101784.41;;;2.61;74.19
44453;BME280;30155;52.164;21.236;2023-02-12T00:20:06;101796.83;;;2.58;73.77
44453;BME280;30155;52.164;21.236;2023-02-12T00:24:59;101801.35;;;2.56;74.04
44453;BME280;30155;52.164;21.236;2023-02-12T00:29:52;101814.64;;;2.55;74.03
44453;BME280;30155;52.164;21.236;2023-02-12T00:34:46;101815.02;;;2.54;74.07
44453;BME280;30155;52.164;21.236;2023-02-12T00:39:40;101818.52;;;2.52;73.92
44453;BME280;30155;52.164;21.236;2023-02-12T00:44:34;101827.79;;;2.50;73.67
44453;BME280;30155;52.164;21.236;2023-02-12T00:49:28;101834.42;;;2.52;74.04
44453;BME280;30155;52.164;21.236;2023-02-12T00:54:24;101836.64;;;2.54;73.88
44453;BME280;30155;52.164;21.236;2023-02-12T00:59:17;101838.93;;;2.50;73.62
44453;BME280;30155;52.164;21.236;2023-02-12T01:04:10;101849.26;;;2.48;73.81
44453;BME280;30155;52.164;21.236;2023-02-12T01:09:03;101859.63;;;2.47;73.67
44453;BME280;30155;52.164;21.236;2023-02-12T01:13:56;101868.25;;;2.49;73.58
44453;BME280;30155;52.164;21.236;2023-02-12T01:18:52;101878.25;;;2.50;73.52
44453;BME280;30155;52.164;21.236;2023-02-12T01:23:47;101877.95;;;2.48;73.43
44453;BME280;30155;52.164;21.236;2023-02-12T01:28:42;101890.66;;;2.41;73.00
44453;BME280;30155;52.164;21.236;2023-02-12T01:33:35;101891.10;;;2.37;72.98
44453;BME280;30155;52.164;21.236;2023-02-12T01:38:28;101897.61;;;2.37;73.28
44453;BME280;30155;52.164;21.236;2023-02-12T01:43:21;101896.36;;;2.42;73.17
44453;BME280;30155;52.164;21.236;2023-02-12T01:48:15;101910.15;;;2.41;73.29
44453;BME280;30155;52.164;21.236;2023-02-12T01:53:09;101913.80;;;2.39;72.97
44453;BME280;30155;52.164;21.236;2023-02-12T01:58:04;101917.84;;;2.36;72.87
44453;BME280;30155;52.164;21.236;2023-02-12T02:02:58;101931.54;;;2.38;73.06
44453;BME280;30155;52.164;21.236;2023-02-12T02:07:53;101927.55;;;2.40;73.29
44453;BME280;30155;52.164;21.236;2023-02-12T02:12:46;101931.34;;;2.43;73.12
44453;BME280;30155;52.164;21.236;2023-02-12T02:28:46;101980.59;;;2.54;73.15
44453;BME280;30155;52.164;21.236;2023-02-12T02:34:19;101995.02;;;2.53;73.20
44453;BME280;30155;52.164;21.236;2023-02-12T02:39:28;102004.19;;;2.52;73.09
44453;BME280;30155;52.164;21.236;2023-02-12T02:44:38;102008.27;;;2.51;73.17
44453;BME280;30155;52.164;21.236;2023-02-12T02:49:41;102019.17;;;2.51;73.03
44453;BME280;30155;52.164;21.236;2023-02-12T02:54:43;102024.05;;;2.44;72.93
44453;BME280;30155;52.164;21.236;2023-02-12T02:59:42;102039.79;;;2.44;73.04
44453;BME280;30155;52.164;21.236;2023-02-12T03:04:40;102049.73;;;2.42;72.56
44453;BME280;30155;52.164;21.236;2023-02-12T03:14:32;102086.14;;;2.41;72.42
44453;BME280;30155;52.164;21.236;2023-02-12T03:19:32;102104.02;;;2.38;72.29
44453;BME280;30155;52.164;21.236;2023-02-12T03:24:30;102114.05;;;2.37;72.28
44453;BME280;30155;52.164;21.236;2023-02-12T03:29:26;102117.20;;;2.38;72.38
44453;BME280;30155;52.164;21.236;2023-02-12T03:39:51;102139.77;;;2.38;72.26
44453;BME280;30155;52.164;21.236;2023-02-12T03:44:52;102146.29;;;2.38;71.85
44453;BME280;30155;52.164;21.236;2023-02-12T03:54:41;102175.10;;;2.39;72.08
44453;BME280;30155;52.164;21.236;2023-02-12T03:59:35;102171.63;;;2.36;71.76
44453;BME280;30155;52.164;21.236;2023-02-12T04:04:30;102181.33;;;2.33;71.59
44453;BME280;30155;52.164;21.236;2023-02-12T04:09:25;102185.88;;;2.29;71.50
44453;BME280;30155;52.164;21.236;2023-02-12T04:14:43;102185.19;;;2.24;71.44
44453;BME280;30155;52.164;21.236;2023-02-12T04:30:17;102194.83;;;1.98;70.51
44453;BME280;30155;52.164;21.236;2023-02-12T04:35:25;102198.11;;;1.94;70.54
44453;BME280;30155;52.164;21.236;2023-02-12T04:40:20;102204.17;;;1.93;70.31
44453;BME280;30155;52.164;21.236;2023-02-12T04:45:25;102208.01;;;1.93;70.56
44453;BME280;30155;52.164;21.236;2023-02-12T04:50:19;102213.45;;;1.96;70.76
44453;BME280;30155;52.164;21.236;2023-02-12T04:55:12;102218.81;;;1.99;70.40
44453;BME280;30155;52.164;21.236;2023-02-12T05:00:07;102226.20;;;2.01;70.71
44453;BME280;30155;52.164;21.236;2023-02-12T05:05:02;102230.27;;;2.05;70.55
44453;BME280;30155;52.164;21.236;2023-02-12T05:09:54;102244.12;;;2.07;70.88
44453;BME280;30155;52.164;21.236;2023-02-12T05:14:47;102251.73;;;2.13;70.56
44453;BME280;30155;52.164;21.236;2023-02-12T05:19:40;102259.04;;;2.12;70.36
44453;BME280;30155;52.164;21.236;2023-02-12T05:24:33;102271.33;;;2.12;70.61
44453;BME280;30155;52.164;21.236;2023-02-12T05:29:26;102283.59;;;2.11;70.40
44453;BME280;30155;52.164;21.236;2023-02-12T05:34:18;102290.64;;;2.07;70.42
44453;BME280;30155;52.164;21.236;2023-02-12T05:39:11;102296.05;;;2.00;70.18
44453;BME280;30155;52.164;21.236;2023-02-12T05:44:04;102308.48;;;1.99;70.44
44453;BME280;30155;52.164;21.236;2023-02-12T05:48:58;102327.84;;;1.99;70.24
44453;BME280;30155;52.164;21.236;2023-02-12T05:53:56;102329.52;;;1.97;69.83
44453;BME280;30155;52.164;21.236;2023-02-12T05:58:56;102335.23;;;1.98;70.15
44453;BME280;30155;52.164;21.236;2023-02-12T06:03:49;102339.04;;;1.98;70.33
44453;BME280;30155;52.164;21.236;2023-02-12T06:08:42;102341.46;;;1.99;70.03
44453;BME280;30155;52.164;21.236;2023-02-12T06:13:39;102354.77;;;1.98;70.08
44453;BME280;30155;52.164;21.236;2023-02-12T06:18:34;102366.21;;;2.00;70.46
44453;BME280;30155;52.164;21.236;2023-02-12T06:23:27;102378.56;;;1.94;70.71
44453;BME280;30155;52.164;21.236;2023-02-12T06:28:20;102381.06;;;1.98;71.13
44453;BME280;30155;52.164;21.236;2023-02-12T06:33:13;102392.45;;;1.97;70.76
44453;BME280;30155;52.164;21.236;2023-02-12T06:38:06;102397.58;;;1.99;71.38
44453;BME280;30155;52.164;21.236;2023-02-12T06:42:59;102405.68;;;2.06;71.06
44453;BME280;30155;52.164;21.236;2023-02-12T06:47:52;102407.58;;;2.15;70.74
44453;BME280;30155;52.164;21.236;2023-02-12T06:52:45;102404.17;;;2.22;70.25
44453;BME280;30155;52.164;21.236;2023-02-12T06:57:38;102409.84;;;2.26;70.37
44453;BME280;30155;52.164;21.236;2023-02-12T07:02:31;102417.88;;;2.26;70.13
44453;BME280;30155;52.164;21.236;2023-02-12T07:07:24;102421.81;;;2.20;70.40
44453;BME280;30155;52.164;21.236;2023-02-12T07:12:17;102421.90;;;2.08;70.39
44453;BME280;30155;52.164;21.236;2023-02-12T07:17:09;102428.55;;;1.95;70.10
44453;BME280;30155;52.164;21.236;2023-02-12T07:22:03;102428.67;;;1.83;70.25
44453;BME280;30155;52.164;21.236;2023-02-12T07:26:56;102426.54;;;1.71;70.24
44453;BME280;30155;52.164;21.236;2023-02-12T07:31:48;102436.43;;;1.69;70.35
44453;BME280;30155;52.164;21.236;2023-02-12T07:36:41;102438.34;;;1.76;70.51
44453;BME280;30155;52.164;21.236;2023-02-12T07:41:34;102439.04;;;2.04;69.61
44453;BME280;30155;52.164;21.236;2023-02-12T07:46:30;102442.20;;;2.09;69.67
44453;BME280;30155;52.164;21.236;2023-02-12T07:51:26;102447.90;;;2.08;69.47
44453;BME280;30155;52.164;21.236;2023-02-12T07:56:21;102451.84;;;2.08;69.11
44453;BME280;30155;52.164;21.236;2023-02-12T08:01:26;102450.73;;;2.11;69.00
44453;BME280;30155;52.164;21.236;2023-02-12T08:06:22;102451.48;;;2.10;68.95
44453;BME280;30155;52.164;21.236;2023-02-12T08:11:15;102459.66;;;2.14;68.45
44453;BME280;30155;52.164;21.236;2023-02-12T08:16:11;102460.86;;;2.14;67.88
44453;BME280;30155;52.164;21.236;2023-02-12T08:21:07;102463.69;;;2.17;68.09
44453;BME280;30155;52.164;21.236;2023-02-12T08:26:09;102470.73;;;2.57;67.90
44453;BME280;30155;52.164;21.236;2023-02-12T08:31:04;102468.21;;;2.87;67.55
44453;BME280;30155;52.164;21.236;2023-02-12T08:36:05;102471.75;;;3.00;66.99
44453;BME280;30155;52.164;21.236;2023-02-12T08:41:11;102469.11;;;3.13;67.03
44453;BME280;30155;52.164;21.236;2023-02-12T08:46:17;102472.14;;;3.19;66.74
44453;BME280;30155;52.164;21.236;2023-02-12T08:51:15;102475.36;;;3.23;66.17
44453;BME280;30155;52.164;21.236;2023-02-12T08:56:11;102483.77;;;3.32;66.07
44453;BME280;30155;52.164;21.236;2023-02-12T09:01:09;102480.01;;;3.58;66.09
44453;BME280;30155;52.164;21.236;2023-02-12T09:06:03;102471.56;;;3.97;65.48
44453;BME280;30155;52.164;21.236;2023-02-12T09:10:57;102466.73;;;4.34;64.58
44453;BME280;30155;52.164;21.236;2023-02-12T09:15:50;102470.54;;;6.69;62.25
44453;BME280;30155;52.164;21.236;2023-02-12T09:20:43;102466.40;;;8.06;60.94
44453;BME280;30155;52.164;21.236;2023-02-12T09:25:45;102464.23;;;7.76;60.80
44453;BME280;30155;52.164;21.236;2023-02-12T09:30:39;102475.58;;;7.51;60.13
44453;BME280;30155;52.164;21.236;2023-02-12T09:35:34;102487.88;;;6.96;59.44
44453;BME280;30155;52.164;21.236;2023-02-12T09:46:15;102497.85;;;7.89;58.59
44453;BME280;30155;52.164;21.236;2023-02-12T09:51:11;102502.39;;;9.07;56.76
44453;BME280;30155;52.164;21.236;2023-02-12T09:56:31;102510.67;;;8.64;56.45
44453;BME280;30155;52.164;21.236;2023-02-12T10:01:26;102517.65;;;9.17;56.40
44453;BME280;30155;52.164;21.236;2023-02-12T10:06:40;102519.60;;;9.28;56.35
44453;BME280;30155;52.164;21.236;2023-02-12T10:17:02;102507.79;;;7.95;56.85
44453;BME280;30155;52.164;21.236;2023-02-12T10:22:24;102487.80;;;7.93;56.28
44453;BME280;30155;52.164;21.236;2023-02-12T10:27:41;102489.48;;;9.28;55.57
44453;BME280;30155;52.164;21.236;2023-02-12T10:32:36;102493.45;;;9.67;54.50
44453;BME280;30155;52.164;21.236;2023-02-12T10:37:43;102494.69;;;9.67;54.51
44453;BME280;30155;52.164;21.236;2023-02-12T10:42:39;102513.83;;;9.31;54.80
44453;BME280;30155;52.164;21.236;2023-02-12T10:47:33;102509.96;;;9.30;54.84
44453;BME280;30155;52.164;21.236;2023-02-12T10:52:55;102500.63;;;9.58;54.42
44453;BME280;30155;52.164;21.236;2023-02-12T10:57:52;102493.40;;;9.51;54.44
44453;BME280;30155;52.164;21.236;2023-02-12T11:03:00;102493.15;;;9.33;54.12
44453;BME280;30155;52.164;21.236;2023-02-12T11:07:53;102496.42;;;9.53;54.20
44453;BME280;30155;52.164;21.236;2023-02-12T11:12:46;102495.94;;;10.37;53.86
44453;BME280;30155;52.164;21.236;2023-02-12T11:17:42;102491.09;;;10.71;52.45
44453;BME280;30155;52.164;21.236;2023-02-12T11:22:35;102498.80;;;10.88;51.54
44453;BME280;30155;52.164;21.236;2023-02-12T11:27:29;102493.10;;;11.05;51.62
44453;BME280;30155;52.164;21.236;2023-02-12T11:32:22;102489.48;;;11.51;51.59
44453;BME280;30155;52.164;21.236;2023-02-12T11:37:17;102481.70;;;12.03;50.34
44453;BME280;30155;52.164;21.236;2023-02-12T11:42:23;102483.14;;;12.36;50.10
44453;BME280;30155;52.164;21.236;2023-02-12T11:47:29;102476.81;;;11.99;49.98
44453;BME280;30155;52.164;21.236;2023-02-12T11:52:27;102476.11;;;11.64;50.11
44453;BME280;30155;52.164;21.236;2023-02-12T12:02:36;102476.31;;;12.54;49.07
44453;BME280;30155;52.164;21.236;2023-02-12T12:07:33;102469.89;;;12.45;49.35
44453;BME280;30155;52.164;21.236;2023-02-12T12:13:09;102459.75;;;11.98;49.23
44453;BME280;30155;52.164;21.236;2023-02-12T12:24:23;102466.83;;;10.91;50.59
44453;BME280;30155;52.164;21.236;2023-02-12T12:34:12;102461.02;;;9.23;51.35
44453;BME280;30155;52.164;21.236;2023-02-12T12:59:40;102443.55;;;7.92;54.07
44453;BME280;30155;52.164;21.236;2023-02-12T13:10:09;102442.29;;;7.85;54.34
44453;BME280;30155;52.164;21.236;2023-02-12T13:15:32;102434.24;;;7.95;54.74
44453;BME280;30155;52.164;21.236;2023-02-12T13:26:10;102433.91;;;7.59;54.51
44453;BME280;30155;52.164;21.236;2023-02-12T13:31:09;102434.28;;;7.11;54.82
44453;BME280;30155;52.164;21.236;2023-02-12T13:36:24;102439.24;;;6.90;55.68
44453;BME280;30155;52.164;21.236;2023-02-12T13:41:17;102444.73;;;6.74;55.79
44453;BME280;30155;52.164;21.236;2023-02-12T13:51:40;102446.27;;;6.32;55.94
44453;BME280;30155;52.164;21.236;2023-02-12T13:56:42;102448.92;;;6.14;56.21
44453;BME280;30155;52.164;21.236;2023-02-12T14:01:43;102454.69;;;5.93;56.62
44453;BME280;30155;52.164;21.236;2023-02-12T14:06:38;102456.84;;;5.81;56.88
44453;BME280;30155;52.164;21.236;2023-02-12T14:11:31;102453.49;;;5.72;57.10
44453;BME280;30155;52.164;21.236;2023-02-12T14:26:23;102454.84;;;5.48;57.60
44453;BME280;30155;52.164;21.236;2023-02-12T14:41:32;102454.36;;;4.94;58.24
44453;BME280;30155;52.164;21.236;2023-02-12T14:51:41;102456.99;;;4.47;58.90
44453;BME280;30155;52.164;21.236;2023-02-12T14:56:44;102451.98;;;4.24;59.30
44453;BME280;30155;52.164;21.236;2023-02-12T15:01:38;102454.42;;;4.08;59.70
44453;BME280;30155;52.164;21.236;2023-02-12T15:06:38;102459.77;;;3.98;59.94
44453;BME280;30155;52.164;21.236;2023-02-12T15:16:33;102463.80;;;3.75;60.87
44453;BME280;30155;52.164;21.236;2023-02-12T15:21:31;102463.73;;;3.63;61.21
44453;BME280;30155;52.164;21.236;2023-02-12T15:26:26;102466.89;;;3.47;61.51
44453;BME280;30155;52.164;21.236;2023-02-12T15:31:25;102467.96;;;3.43;62.03
44453;BME280;30155;52.164;21.236;2023-02-12T15:36:21;102469.68;;;3.32;62.09
44453;BME280;30155;52.164;21.236;2023-02-12T15:41:28;102478.27;;;3.23;62.47
44453;BME280;30155;52.164;21.236;2023-02-12T15:46:26;102478.25;;;3.14;62.96
44453;BME280;30155;52.164;21.236;2023-02-12T15:51:33;102481.42;;;3.01;63.13
44453;BME280;30155;52.164;21.236;2023-02-12T15:56:27;102491.54;;;2.85;63.19
44453;BME280;30155;52.164;21.236;2023-02-12T16:01:23;102497.14;;;2.73;63.64
44453;BME280;30155;52.164;21.236;2023-02-12T16:06:17;102501.27;;;2.60;63.76
44453;BME280;30155;52.164;21.236;2023-02-12T16:11:13;102491.44;;;2.44;64.02
44453;BME280;30155;52.164;21.236;2023-02-12T16:21:20;102495.81;;;2.12;64.62
44453;BME280;30155;52.164;21.236;2023-02-12T16:26:25;102492.67;;;1.95;64.68
44453;BME280;30155;52.164;21.236;2023-02-12T16:31:19;102494.16;;;1.85;65.33
44453;BME280;30155;52.164;21.236;2023-02-12T16:46:11;102485.58;;;1.62;65.62
44453;BME280;30155;52.164;21.236;2023-02-12T16:51:04;102475.96;;;1.53;65.79
44453;BME280;30155;52.164;21.236;2023-02-12T16:55:59;102468.14;;;1.42;66.07
44453;BME280;30155;52.164;21.236;2023-02-12T17:00:54;102461.56;;;1.33;66.48
44453;BME280;30155;52.164;21.236;2023-02-12T17:05:48;102463.94;;;1.25;66.47
44453;BME280;30155;52.164;21.236;2023-02-12T17:10:43;102463.77;;;1.14;66.66
44453;BME280;30155;52.164;21.236;2023-02-12T17:15:39;102455.49;;;1.07;66.64
44453;BME280;30155;52.164;21.236;2023-02-12T17:20:34;102460.17;;;1.00;66.83
44453;BME280;30155;52.164;21.236;2023-02-12T17:25:26;102471.09;;;0.87;66.88
44453;BME280;30155;52.164;21.236;2023-02-12T17:30:20;102472.33;;;0.80;67.15
44453;BME280;30155;52.164;21.236;2023-02-12T17:35:14;102479.93;;;0.72;67.16
44453;BME280;30155;52.164;21.236;2023-02-12T17:40:08;102479.52;;;0.66;67.63
44453;BME280;30155;52.164;21.236;2023-02-12T17:45:03;102488.45;;;0.60;67.73
44453;BME280;30155;52.164;21.236;2023-02-12T17:49:56;102487.86;;;0.56;67.81
44453;BME280;30155;52.164;21.236;2023-02-12T17:54:51;102488.02;;;0.54;68.10
44453;BME280;30155;52.164;21.236;2023-02-12T17:59:43;102500.23;;;0.51;68.16
44453;BME280;30155;52.164;21.236;2023-02-12T18:04:36;102497.48;;;0.51;68.50
44453;BME280;30155;52.164;21.236;2023-02-12T18:09:30;102498.51;;;0.49;68.70
44453;BME280;30155;52.164;21.236;2023-02-12T18:14:23;102485.36;;;0.50;68.93
44453;BME280;30155;52.164;21.236;2023-02-12T18:19:16;102476.77;;;0.48;69.06
44453;BME280;30155;52.164;21.236;2023-02-12T18:24:09;102469.30;;;0.44;69.31
44453;BME280;30155;52.164;21.236;2023-02-12T18:29:02;102468.17;;;0.41;69.19
44453;BME280;30155;52.164;21.236;2023-02-12T18:33:56;102469.77;;;0.37;69.21
44453;BME280;30155;52.164;21.236;2023-02-12T18:38:50;102470.77;;;0.41;69.62
44453;BME280;30155;52.164;21.236;2023-02-12T18:43:43;102468.59;;;0.56;70.12
44453;BME280;30155;52.164;21.236;2023-02-12T18:48:36;102469.08;;;0.73;70.39
44453;BME280;30155;52.164;21.236;2023-02-12T18:53:29;102465.11;;;0.95;70.67
44453;BME280;30155;52.164;21.236;2023-02-12T18:58:23;102453.52;;;1.21;70.92
44453;BME280;30155;52.164;21.236;2023-02-12T19:03:16;102458.70;;;1.40;71.20
44453;BME280;30155;52.164;21.236;2023-02-12T19:08:09;102460.48;;;1.56;70.73
44453;BME280;30155;52.164;21.236;2023-02-12T19:13:01;102457.73;;;1.66;71.04
44453;BME280;30155;52.164;21.236;2023-02-12T19:17:54;102457.45;;;1.79;70.96
44453;BME280;30155;52.164;21.236;2023-02-12T19:22:47;102455.74;;;1.84;70.96
44453;BME280;30155;52.164;21.236;2023-02-12T19:27:40;102449.19;;;1.87;70.77
44453;BME280;30155;52.164;21.236;2023-02-12T19:32:35;102451.48;;;1.93;71.05
44453;BME280;30155;52.164;21.236;2023-02-12T19:37:29;102442.10;;;1.97;70.98
44453;BME280;30155;52.164;21.236;2023-02-12T19:42:22;102439.55;;;2.02;71.12
44453;BME280;30155;52.164;21.236;2023-02-12T19:47:15;102429.34;;;2.03;71.33
44453;BME280;30155;52.164;21.236;2023-02-12T19:52:08;102423.01;;;2.02;71.22
44453;BME280;30155;52.164;21.236;2023-02-12T19:57:01;102417.84;;;2.04;71.32
44453;BME280;30155;52.164;21.236;2023-02-12T20:01:59;102421.13;;;2.04;71.80
44453;BME280;30155;52.164;21.236;2023-02-12T20:06:53;102421.52;;;2.14;71.81
44453;BME280;30155;52.164;21.236;2023-02-12T20:11:46;102413.10;;;2.16;71.55
44453;BME280;30155;52.164;21.236;2023-02-12T20:16:39;102410.42;;;2.21;71.73
44453;BME280;30155;52.164;21.236;2023-02-12T20:21:35;102417.19;;;2.26;71.75
44453;BME280;30155;52.164;21.236;2023-02-12T20:26:30;102420.98;;;2.25;71.80
44453;BME280;30155;52.164;21.236;2023-02-12T20:31:26;102418.27;;;2.20;72.12
44453;BME280;30155;52.164;21.236;2023-02-12T20:36:19;102411.25;;;2.25;71.95
44453;BME280;30155;52.164;21.236;2023-02-12T20:41:12;102403.73;;;2.25;72.12
44453;BME280;30155;52.164;21.236;2023-02-12T20:46:11;102387.90;;;2.21;72.20
44453;BME280;30155;52.164;21.236;2023-02-12T20:51:10;102379.27;;;2.23;72.36
44453;BME280;30155;52.164;21.236;2023-02-12T20:56:05;102377.27;;;2.28;72.45
44453;BME280;30155;52.164;21.236;2023-02-12T21:01:07;102368.55;;;2.28;72.34
44453;BME280;30155;52.164;21.236;2023-02-12T21:06:01;102368.27;;;2.26;72.36
44453;BME280;30155;52.164;21.236;2023-02-12T21:11:03;102361.04;;;2.28;72.62
44453;BME280;30155;52.164;21.236;2023-02-12T21:16:10;102363.52;;;2.32;72.48
44453;BME280;30155;52.164;21.236;2023-02-12T21:21:06;102363.70;;;2.37;72.59
44453;BME280;30155;52.164;21.236;2023-02-12T21:26:10;102359.52;;;2.42;72.70
44453;BME280;30155;52.164;21.236;2023-02-12T21:31:15;102359.19;;;2.45;72.68
44453;BME280;30155;52.164;21.236;2023-02-12T21:36:11;102356.14;;;2.45;72.78
44453;BME280;30155;52.164;21.236;2023-02-12T21:41:21;102352.08;;;2.48;72.74
44453;BME280;30155;52.164;21.236;2023-02-12T21:46:15;102340.27;;;2.50;73.02
44453;BME280;30155;52.164;21.236;2023-02-12T21:51:27;102333.82;;;2.58;73.04
44453;BME280;30155;52.164;21.236;2023-02-12T21:56:21;102334.85;;;2.65;73.58
44453;BME280;30155;52.164;21.236;2023-02-12T22:01:16;102336.30;;;2.71;73.96
44453;BME280;30155;52.164;21.236;2023-02-12T22:06:12;102329.21;;;2.72;73.93
44453;BME280;30155;52.164;21.236;2023-02-12T22:11:07;102328.90;;;2.72;74.16
44453;BME280;30155;52.164;21.236;2023-02-12T22:16:20;102324.92;;;2.72;74.47
44453;BME280;30155;52.164;21.236;2023-02-12T22:21:15;102326.30;;;2.74;75.01
44453;BME280;30155;52.164;21.236;2023-02-12T22:26:10;102324.14;;;2.87;75.36
44453;BME280;30155;52.164;21.236;2023-02-12T22:31:05;102327.30;;;2.97;75.38
44453;BME280;30155;52.164;21.236;2023-02-12T22:36:02;102317.45;;;3.02;75.52
44453;BME280;30155;52.164;21.236;2023-02-12T22:40:55;102317.17;;;3.11;76.11
44453;BME280;30155;52.164;21.236;2023-02-12T22:45:49;102306.04;;;3.18;76.50
44453;BME280;30155;52.164;21.236;2023-02-12T22:50:42;102298.43;;;3.27;76.78
44453;BME280;30155;52.164;21.236;2023-02-12T22:55:35;102289.45;;;3.37;77.14
44453;BME280;30155;52.164;21.236;2023-02-12T23:00:28;102287.49;;;3.47;77.52
44453;BME280;30155;52.164;21.236;2023-02-12T23:05:21;102282.63;;;3.51;77.79
44453;BME280;30155;52.164;21.236;2023-02-12T23:10:14;102279.11;;;3.56;78.13
44453;BME280;30155;52.164;21.236;2023-02-12T23:15:07;102274.86;;;3.62;78.25
44453;BME280;30155;52.164;21.236;2023-02-12T23:20:00;102263.30;;;3.66;78.44
44453;BME280;30155;52.164;21.236;2023-02-12T23:24:53;102257.16;;;3.71;78.78
44453;BME280;30155;52.164;21.236;2023-02-12T23:29:46;102251.88;;;3.74;79.02
44453;BME280;30155;52.164;21.236;2023-02-12T23:34:38;102247.05;;;3.78;79.15
44453;BME280;30155;52.164;21.236;2023-02-12T23:39:32;102244.31;;;3.84;79.37
44453;BME280;30155;52.164;21.236;2023-02-12T23:44:25;102237.85;;;3.90;79.47
44453;BME280;30155;52.164;21.236;2023-02-12T23:49:18;102233.06;;;3.95;79.73
44453;BME280;30155;52.164;21.236;2023-02-12T23:54:11;102229.48;;;3.95;79.55
44453;BME280;30155;52.164;21.236;2023-02-12T23:59:05;102217.98;;;3.98;79.91
